Terminal Aerodrome Forecast
Issued by NWS

Home | Current Version | Previous Version | Text Only | Print | Product List | Glossary On
Versions: 1 2 3 4 5 6 7 8 9 10 11 12 13 14 15 16 17
000
FTPQ31 PGUM 292320
TAFGUM
TAF

TAF
PTPN 292320Z 3000/3024 08015KT P6SM VCSH BKN017 OVC130
      TEMPO 3000/3001 5SM SHRA OVC017
     FM300400 07012KT P6SM VCSH SCT018 SCT030 BKN130=

USA.gov is the U.S. government's official web portal to all federal, state and local government web resources and services.